createdAt,value
2019-03-03T00:07:15.507Z,0.13
2019-03-03T00:17:20.695Z,0.24
2019-03-03T00:27:25.772Z,0.30
2019-03-03T00:37:38.597Z,0.42
2019-03-03T00:47:51.532Z,0.43
2019-03-03T00:58:01.229Z,0.55
2019-03-03T01:08:08.016Z,0.66
2019-03-03T01:18:14.624Z,0.76
2019-03-03T01:28:19.713Z,0.81
2019-03-03T01:38:24.795Z,0.86
2019-03-03T01:48:29.976Z,0.83
2019-03-03T01:58:35.055Z,0.85
2019-03-03T02:08:40.680Z,0.92
2019-03-03T02:18:46.260Z,1.06
2019-03-03T02:28:51.301Z,1.08
2019-03-03T02:38:56.688Z,1.19
2019-03-03T02:49:01.811Z,1.30
2019-03-03T02:59:06.984Z,1.45
2019-03-03T03:09:13.646Z,1.44
2019-03-03T03:19:23.521Z,1.54
2019-03-03T03:29:32.852Z,1.55
2019-03-03T03:39:51.245Z,1.65
2019-03-03T03:49:58.103Z,1.74
2019-03-03T04:00:07.473Z,1.72
2019-03-03T04:10:16.989Z,1.69
2019-03-03T04:20:23.602Z,1.75
2019-03-03T04:30:42.220Z,1.91
2019-03-03T04:40:52.010Z,2.12
2019-03-03T04:51:02.616Z,2.11
2019-03-03T05:01:25.454Z,2.37
2019-03-03T05:11:58.002Z,2.60
2019-03-03T05:22:03.189Z,2.70
2019-03-03T05:32:08.512Z,2.72
2019-03-03T05:42:13.782Z,2.73
2019-03-03T05:52:18.892Z,2.86
2019-03-03T06:02:24.133Z,2.88
2019-03-03T06:12:29.404Z,3.10
2019-03-03T06:22:34.600Z,3.45
2019-03-03T06:32:39.791Z,3.44
2019-03-03T06:42:44.753Z,3.77
2019-03-03T06:52:49.883Z,3.99
2019-03-03T07:02:54.959Z,4.09
2019-03-03T07:13:00.179Z,4.27
2019-03-03T07:23:05.131Z,4.98
2019-03-03T07:33:11.717Z,5.03
2019-03-03T07:43:16.904Z,4.83
2019-03-03T07:53:22.403Z,4.72
2019-03-03T08:03:28.439Z,5.05
2019-03-03T08:13:33.649Z,5.55
2019-03-03T08:23:39.019Z,5.46
2019-03-03T08:33:44.200Z,5.89
2019-03-03T08:43:53.879Z,6.00
2019-03-03T08:54:01.051Z,6.19
2019-03-03T09:04:10.928Z,6.17
2019-03-03T09:14:27.546Z,6.10
2019-03-03T09:24:37.251Z,6.20
2019-03-03T09:34:50.026Z,6.16
2019-03-03T09:44:57.128Z,6.41
2019-03-03T09:55:06.377Z,6.62
2019-03-03T10:05:14.289Z,6.63
2019-03-03T10:15:21.648Z,6.87
2019-03-03T10:25:31.208Z,7.27
2019-03-03T10:35:54.189Z,7.12
2019-03-03T10:46:17.573Z,7.15
2019-03-03T10:56:31.702Z,8.35
2019-03-03T11:06:50.855Z,8.66
2019-03-03T11:17:02.834Z,9.01
2019-03-03T11:27:11.886Z,9.69
2019-03-03T11:37:18.522Z,9.24
2019-03-03T11:47:37.660Z,9.14
2019-03-03T11:57:46.192Z,9.84
2019-03-03T12:08:12.942Z,10.65
2019-03-03T12:18:24.706Z,10.29
2019-03-03T12:28:31.643Z,10.05
2019-03-03T12:38:47.781Z,10.09
2019-03-03T12:48:55.072Z,10.18
2019-03-03T12:59:01.904Z,10.23
2019-03-03T13:09:12.174Z,10.41
2019-03-03T13:19:35.852Z,10.48
2019-03-03T13:29:48.985Z,10.50
2019-03-03T13:40:07.634Z,10.47
2019-03-03T13:50:15.224Z,10.70
2019-03-03T14:00:22.151Z,11.00
2019-03-03T14:10:27.657Z,11.36
2019-03-03T14:20:33.403Z,11.33
2019-03-03T14:30:40.498Z,11.30
2019-03-03T14:40:46.032Z,11.32
2019-03-03T14:50:51.347Z,11.42
2019-03-03T15:00:57.132Z,11.35
2019-03-03T15:11:04.353Z,11.15
2019-03-03T15:31:40.527Z,11.27
2019-03-03T15:41:46.146Z,11.23
2019-03-03T15:51:51.429Z,11.07
2019-03-03T16:01:57.047Z,11.02
2019-03-03T16:12:02.761Z,10.95
2019-03-03T16:22:08.013Z,10.92
2019-03-03T16:32:13.674Z,10.78
2019-03-03T16:42:19.273Z,10.80
2019-03-03T16:52:24.750Z,10.44
2019-03-03T17:02:30.264Z,9.97
2019-03-03T17:12:35.896Z,9.54
2019-03-03T17:22:41.460Z,9.24
2019-03-03T17:32:47.490Z,9.22
2019-03-03T17:42:53.208Z,9.14
2019-03-03T17:52:58.652Z,8.92
2019-03-03T18:13:28.185Z,9.06
2019-03-03T18:23:33.404Z,9.32
2019-03-03T18:33:39.007Z,9.26
2019-03-03T18:43:44.213Z,9.28
2019-03-03T18:53:49.447Z,9.38
2019-03-03T19:03:55.428Z,9.32
2019-03-03T19:14:00.757Z,9.58
2019-03-03T19:24:06.032Z,9.34
2019-03-03T19:34:11.215Z,9.33
2019-03-03T19:44:16.484Z,9.31
2019-03-03T19:54:21.770Z,9.30
2019-03-03T20:04:27.013Z,9.37
2019-03-03T20:14:32.173Z,9.38
2019-03-03T20:24:37.432Z,9.27
2019-03-03T20:34:42.903Z,9.49
2019-03-03T20:44:48.077Z,9.35
2019-03-03T20:54:53.337Z,9.11
2019-03-03T21:04:58.611Z,8.86
2019-03-03T21:15:04.481Z,8.94
2019-03-03T21:25:11.655Z,8.82
2019-03-03T21:35:17.791Z,8.94
2019-03-03T21:45:27.783Z,9.10
2019-03-03T21:55:32.722Z,9.10
2019-03-03T22:05:37.679Z,9.24
2019-03-03T22:15:42.509Z,9.23
2019-03-03T22:25:47.324Z,9.27
2019-03-03T22:35:52.071Z,9.27
2019-03-03T22:45:56.821Z,9.25
2019-03-03T22:56:01.662Z,9.14
2019-03-03T23:06:26.129Z,9.37
2019-03-03T23:16:34.013Z,9.27
2019-03-03T23:26:38.778Z,9.11
2019-03-03T23:36:43.598Z,9.06
2019-03-03T23:46:48.346Z,8.91
2019-03-03T23:56:53.202Z,8.97
